Time;durP1;ratioP1;P1;durP2;ratioP2;P2;SDS_P1;SDS_P2;PMS_P1;PMS_P2;Temp;Humidity;BMP_temperature;BMP_pressure;BME280_temperature;BME280_humidity;BME280_pressure;Samples;Min_cycle;Max_cycle;Signal;HPM_P1;HPM_P2
2023/12/13 00:01:38;;;;;;;61.05;37.88;;;;;;;4.66;66.60;94775.41;5104536;28;20024;-78
2023/12/13 00:04:03;;;;;;;62.25;35.85;;;;;;;4.66;66.66;94772.66;5106278;28;20028;-79
2023/12/13 00:06:29;;;;;;;55.85;35.95;;;;;;;4.69;66.77;94763.69;5105304;28;20058;-79
2023/12/13 00:08:55;;;;;;;65.72;36.90;;;;;;;4.71;66.58;94761.34;5105452;28;20039;-78
2023/12/13 00:11:20;;;;;;;59.17;34.30;;;;;;;4.70;66.65;94765.22;5106767;28;20077;-78
2023/12/13 00:13:46;;;;;;;57.88;33.40;;;;;;;4.66;66.63;94761.78;5104943;28;20429;-78
2023/12/13 00:16:12;;;;;;;59.38;33.45;;;;;;;4.68;66.67;94787.41;5106891;28;20047;-78
2023/12/13 00:18:38;;;;;;;64.13;34.90;;;;;;;4.66;66.83;94794.47;5105133;28;20043;-77
2023/12/13 00:21:03;;;;;;;53.28;32.13;;;;;;;4.64;67.07;94788.63;5106734;28;20034;-78
2023/12/13 00:23:29;;;;;;;55.63;32.58;;;;;;;4.63;67.15;94787.84;5104570;28;20031;-78
2023/12/13 00:25:54;;;;;;;53.53;28.58;;;;;;;4.63;67.17;94787.06;5105694;28;20103;-78
2023/12/13 00:28:19;;;;;;;48.47;28.20;;;;;;;4.61;67.18;94768.44;5106434;28;20047;-79
2023/12/13 00:30:45;;;;;;;45.65;27.98;;;;;;;4.63;67.17;94770.75;5105018;28;20029;-79
2023/12/13 00:33:11;;;;;;;44.00;26.33;;;;;;;4.63;67.24;94760.63;5106930;28;20050;-77
2023/12/13 00:35:37;;;;;;;44.50;25.15;;;;;;;4.63;67.58;94759.84;5104713;28;20485;-79
2023/12/13 00:38:03;;;;;;;47.47;27.63;;;;;;;4.60;67.47;94755.22;5107247;28;20095;-78
2023/12/13 00:40:29;;;;;;;47.50;26.30;;;;;;;4.60;67.24;94763.38;5105308;28;20023;-79
2023/12/13 00:42:55;;;;;;;43.65;25.48;;;;;;;4.54;67.54;94752.16;5106223;28;20111;-78
2023/12/13 00:45:21;;;;;;;47.85;26.35;;;;;;;4.43;67.60;94738.63;5106100;28;20023;-79
2023/12/13 00:47:47;;;;;;;44.58;24.65;;;;;;;4.56;67.57;94757.19;5105421;28;20084;-78
2023/12/13 00:50:12;;;;;;;41.92;24.50;;;;;;;4.57;67.50;94745.13;5106981;28;20315;-78
2023/12/13 00:52:38;;;;;;;37.30;24.48;;;;;;;4.55;67.57;94747.47;5104545;28;20059;-78
2023/12/13 00:55:04;;;;;;;41.88;22.75;;;;;;;4.50;67.59;94733.13;5106648;28;20425;-78
2023/12/13 00:57:32;;;;;;;40.42;23.67;;;;;;;4.48;67.76;94732.00;5105256;28;20015;-78
2023/12/13 00:59:58;;;;;;;40.50;23.33;;;;;;;4.59;67.22;94720.97;5110223;28;20027;-78
2023/12/13 01:02:24;;;;;;;41.58;22.55;;;;;;;4.55;67.55;94714.81;5109737;28;20104;-79
2023/12/13 01:04:49;;;;;;;36.67;21.20;;;;;;;4.52;67.40;94730.00;5108837;28;20067;-77
2023/12/13 01:07:15;;;;;;;35.08;21.98;;;;;;;4.48;67.45;94721.09;5109174;28;20026;-79
2023/12/13 01:09:40;;;;;;;39.25;23.25;;;;;;;4.55;66.87;94715.59;5107115;28;20030;-78
2023/12/13 01:12:06;;;;;;;39.80;24.17;;;;;;;4.49;67.13;94712.53;5110280;28;20550;-77
2023/12/13 01:14:33;;;;;;;36.20;22.83;;;;;;;4.52;67.30;94706.25;5107034;28;20032;-78
2023/12/13 01:16:58;;;;;;;35.58;22.58;;;;;;;4.48;67.64;94691.16;5108804;28;20126;-78
2023/12/13 01:19:24;;;;;;;37.03;23.90;;;;;;;4.46;67.75;94682.59;5108994;28;20118;-79
2023/12/13 01:21:50;;;;;;;36.60;23.60;;;;;;;4.47;67.66;94676.78;5109219;28;20031;-77
2023/12/13 01:24:15;;;;;;;35.75;21.80;;;;;;;4.50;67.70;94691.53;5108541;28;20050;-78
2023/12/13 01:26:40;;;;;;;40.70;24.23;;;;;;;4.55;67.58;94680.19;5106582;28;20031;-78
2023/12/13 01:29:06;;;;;;;41.03;23.30;;;;;;;4.48;67.54;94683.75;5109947;28;20055;-79
2023/12/13 01:31:31;;;;;;;42.38;23.60;;;;;;;4.52;67.52;94689.16;5107892;28;20103;-78
2023/12/13 01:33:57;;;;;;;39.83;23.15;;;;;;;4.57;67.43;94696.13;5110054;27;20620;-78
2023/12/13 01:36:22;;;;;;;39.70;24.35;;;;;;;4.61;67.56;94699.59;5108067;28;20027;-78
2023/12/13 01:38:47;;;;;;;37.83;24.27;;;;;;;4.63;67.45;94706.16;5109571;28;20585;-79
2023/12/13 01:41:13;;;;;;;41.30;23.85;;;;;;;4.65;67.45;94708.50;5109327;27;20069;-78
2023/12/13 01:43:39;;;;;;;41.42;26.17;;;;;;;4.67;67.45;94703.41;5107858;28;20599;-78
2023/12/13 01:46:04;;;;;;;39.90;24.38;;;;;;;4.64;67.38;94699.53;5109731;28;20032;-79
2023/12/13 01:48:30;;;;;;;42.70;24.50;;;;;;;4.62;67.73;94692.97;5107825;28;20024;-79
2023/12/13 01:50:55;;;;;;;42.28;25.67;;;;;;;4.61;67.51;94686.75;5109719;28;20023;-79
2023/12/13 01:53:22;;;;;;;38.42;24.10;;;;;;;4.65;67.41;94681.28;5107828;28;20111;-79
2023/12/13 01:55:48;;;;;;;44.22;25.27;;;;;;;4.66;67.55;94672.69;5108167;28;20370;-79
2023/12/13 01:58:15;;;;;;;36.65;24.13;;;;;;;4.63;67.74;94668.03;5107101;28;20028;-79
2023/12/13 02:00:42;;;;;;;37.65;24.38;;;;;;;4.65;67.60;94665.72;5107008;28;20382;-78
2023/12/13 02:03:09;;;;;;;48.13;24.30;;;;;;;4.64;67.54;94661.41;5107879;28;20112;-79
2023/12/13 02:05:35;;;;;;;38.78;25.70;;;;;;;4.67;67.55;94654.41;5105741;28;20167;-78
2023/12/13 02:08:02;;;;;;;44.60;26.25;;;;;;;4.64;67.73;94652.47;5108099;28;20033;-78
2023/12/13 02:10:27;;;;;;;44.08;25.67;;;;;;;4.65;67.82;94643.16;5106485;28;20505;-78
2023/12/13 02:12:53;;;;;;;37.70;23.45;;;;;;;4.66;67.53;94625.63;5108996;28;20050;-78
2023/12/13 02:15:19;;;;;;;38.17;23.40;;;;;;;4.70;67.50;94626.34;5106377;28;20409;-78
2023/12/13 02:17:49;;;;;;;39.25;24.40;;;;;;;4.73;67.29;94609.22;5090152;28;20032;-78
2023/12/13 02:20:15;;;;;;;39.50;25.67;;;;;;;4.71;67.22;94609.63;5107737;28;20124;-79
2023/12/13 02:22:40;;;;;;;42.65;25.50;;;;;;;4.74;67.25;94627.09;5107322;28;20031;-79
2023/12/13 02:25:11;;;;;;;41.33;25.65;;;;;;;4.70;67.45;94635.31;5109051;28;20548;-78
2023/12/13 02:27:37;;;;;;;40.67;25.10;;;;;;;4.73;67.31;94650.06;5088453;28;20135;-79
2023/12/13 02:30:02;;;;;;;37.20;24.45;;;;;;;4.66;67.10;94631.09;5109017;28;20098;-78
2023/12/13 02:32:28;;;;;;;39.85;23.92;;;;;;;4.76;66.92;94641.84;5105990;28;20035;-78
2023/12/13 02:34:54;;;;;;;40.97;24.40;;;;;;;4.78;66.93;94636.75;5108809;28;20117;-78
2023/12/13 02:37:20;;;;;;;42.30;24.08;;;;;;;4.75;66.90;94620.47;5108511;28;20168;-78
2023/12/13 02:39:45;;;;;;;43.28;25.00;;;;;;;4.78;67.22;94608.75;5107451;27;20102;-78
2023/12/13 02:42:10;;;;;;;41.03;25.33;;;;;;;4.75;66.93;94588.53;5108716;28;20028;-79
2023/12/13 02:44:37;;;;;;;36.92;25.65;;;;;;;4.73;67.00;94592.88;5106309;28;20163;-79
2023/12/13 02:47:03;;;;;;;41.17;25.27;;;;;;;4.71;66.93;94606.13;5108619;28;20024;-78
2023/12/13 02:49:29;;;;;;;40.58;24.63;;;;;;;4.72;66.78;94615.84;5106397;28;20024;-78
2023/12/13 02:51:54;;;;;;;38.90;25.15;;;;;;;4.73;66.94;94618.16;5108341;28;20454;-79
2023/12/13 02:54:20;;;;;;;41.88;24.60;;;;;;;4.71;66.83;94612.34;5107348;28;20198;-77
2023/12/13 02:56:45;;;;;;;40.47;25.15;;;;;;;4.71;67.20;94614.31;5105798;28;20023;-78
2023/12/13 02:59:10;;;;;;;45.05;27.38;;;;;;;4.72;67.30;94624.78;5108096;28;20102;-78
2023/12/13 03:01:36;;;;;;;41.85;26.33;;;;;;;4.71;67.23;94617.78;5106289;28;20106;-78
2023/12/13 03:04:02;;;;;;;43.78;27.77;;;;;;;4.77;67.33;94618.13;5106979;28;20030;-79
2023/12/13 03:06:27;;;;;;;42.95;27.90;;;;;;;4.78;67.03;94608.75;5105976;28;20450;-79
2023/12/13 03:08:52;;;;;;;52.38;29.20;;;;;;;4.75;67.02;94609.56;5108091;27;20035;-79
2023/12/13 03:11:20;;;;;;;53.25;30.30;;;;;;;4.75;67.06;94610.34;5105311;28;20035;-78
2023/12/13 03:13:45;;;;;;;49.97;30.38;;;;;;;4.76;67.01;94611.13;5105966;28;20040;-79
2023/12/13 03:16:11;;;;;;;53.95;32.03;;;;;;;4.75;66.93;94612.28;5107740;28;20027;-78
2023/12/13 03:18:36;;;;;;;59.10;34.72;;;;;;;4.78;66.67;94625.88;5106208;28;20019;-78
2023/12/13 03:21:02;;;;;;;60.15;36.40;;;;;;;4.75;66.62;94615.78;5106850;28;20016;-79
2023/12/13 03:23:27;;;;;;;53.80;35.40;;;;;;;4.71;66.65;94625.97;5105678;28;20020;-78
2023/12/13 03:25:52;;;;;;;54.22;32.03;;;;;;;4.66;66.44;94623.69;5107739;28;20393;-78
2023/12/13 03:28:18;;;;;;;53.83;31.17;;;;;;;4.66;66.75;94636.53;5106132;28;20036;-78
2023/12/13 03:30:43;;;;;;;48.75;29.65;;;;;;;4.64;66.63;94645.09;5107500;27;20059;-78
2023/12/13 03:33:09;;;;;;;50.88;29.83;;;;;;;4.58;66.77;94635.03;5106724;28;20043;-79
2023/12/13 03:35:34;;;;;;;49.05;29.52;;;;;;;4.55;66.99;94623.03;5106747;28;20062;-79
2023/12/13 03:37:59;;;;;;;47.15;29.70;;;;;;;4.52;67.01;94629.25;5107424;28;20058;-78
2023/12/13 03:40:25;;;;;;;51.35;30.35;;;;;;;4.48;67.14;94623.88;5104098;28;20027;-78
2023/12/13 03:42:50;;;;;;;46.00;28.90;;;;;;;4.44;67.52;94631.31;5107670;28;20032;-78
2023/12/13 03:45:15;;;;;;;49.60;28.92;;;;;;;4.48;67.36;94642.16;5105384;28;20119;-77
2023/12/13 03:47:41;;;;;;;47.55;28.45;;;;;;;4.46;67.40;94626.22;5107031;28;20524;-78
2023/12/13 03:50:06;;;;;;;50.20;29.85;;;;;;;4.52;67.39;94637.44;5105717;28;20027;-78
2023/12/13 03:52:32;;;;;;;40.67;27.85;;;;;;;4.52;67.78;94613.69;5106995;28;20028;-78
2023/12/13 03:54:57;;;;;;;44.58;27.80;;;;;;;4.52;68.05;94627.31;5106825;28;20192;-80
2023/12/13 03:57:23;;;;;;;42.78;27.13;;;;;;;4.63;68.08;94613.59;5105846;27;20023;-78
2023/12/13 03:59:48;;;;;;;47.45;25.25;;;;;;;4.63;68.21;94610.88;5106942;28;20039;-78
2023/12/13 04:02:13;;;;;;;41.03;25.77;;;;;;;4.59;68.51;94622.97;5105316;28;20099;-79
2023/12/13 04:04:39;;;;;;;39.85;26.52;;;;;;;4.64;68.29;94625.25;5105605;28;20031;-79
2023/12/13 04:07:08;;;;;;;41.00;24.75;;;;;;;4.63;68.33;94613.59;5105460;28;20542;-78
2023/12/13 04:09:33;;;;;;;40.58;26.08;;;;;;;4.66;68.27;94601.13;5106860;28;20019;-78
2023/12/13 04:11:59;;;;;;;43.55;26.42;;;;;;;4.66;68.44;94601.91;5105013;28;20028;-79
2023/12/13 04:14:24;;;;;;;43.03;25.42;;;;;;;4.67;68.70;94602.66;5104735;28;20050;-78
2023/12/13 04:16:50;;;;;;;42.08;25.27;;;;;;;4.73;68.54;94587.41;5105997;28;20175;-79
2023/12/13 04:19:15;;;;;;;43.92;25.58;;;;;;;4.69;68.62;94594.84;5105219;28;20468;-79
2023/12/13 04:21:40;;;;;;;43.15;26.58;;;;;;;4.71;68.32;94592.50;5106790;28;20558;-78
2023/12/13 04:24:06;;;;;;;47.30;27.98;;;;;;;4.70;68.25;94593.66;5103571;28;20031;-79
2023/12/13 04:26:32;;;;;;;44.53;26.55;;;;;;;4.70;68.38;94585.50;5105321;28;20508;-78
2023/12/13 04:28:57;;;;;;;48.38;27.85;;;;;;;4.68;68.15;94564.13;5105313;28;20020;-78
2023/12/13 04:31:22;;;;;;;46.30;27.75;;;;;;;4.74;68.13;94559.78;5105302;28;20130;-78
2023/12/13 04:33:48;;;;;;;43.35;28.58;;;;;;;4.73;68.06;94571.09;5110722;28;20102;-78
2023/12/13 04:36:13;;;;;;;43.03;27.98;;;;;;;4.78;67.75;94565.97;5109740;28;20058;-79
2023/12/13 04:38:38;;;;;;;47.28;28.27;;;;;;;4.76;67.80;94559.38;5092465;28;20031;-79
2023/12/13 04:41:04;;;;;;;43.97;29.15;;;;;;;4.67;67.95;94559.09;5109026;28;20536;-78
2023/12/13 04:43:29;;;;;;;46.58;27.63;;;;;;;4.65;68.08;94561.47;5110889;28;20020;-79
2023/12/13 04:45:55;;;;;;;42.65;26.65;;;;;;;4.72;68.10;94575.75;5107612;28;20156;-78
2023/12/13 04:48:20;;;;;;;46.22;26.27;;;;;;;4.70;68.29;94563.72;5111083;28;20077;-79
2023/12/13 04:50:45;;;;;;;42.88;25.77;;;;;;;4.72;68.54;94569.53;5109980;28;20027;-78
2023/12/13 04:53:11;;;;;;;45.00;28.73;;;;;;;4.72;68.22;94558.66;5110020;28;20647;-79
2023/12/13 04:55:36;;;;;;;46.83;28.60;;;;;;;4.52;68.11;94537.47;5108875;28;20032;-79
2023/12/13 04:58:02;;;;;;;52.05;32.03;;;;;;;4.69;68.23;94559.47;5108836;28;20059;-79
2023/12/13 05:00:27;;;;;;;57.58;36.42;;;;;;;4.69;67.83;94559.47;5110429;28;20020;-78
2023/12/13 05:02:52;;;;;;;62.88;40.10;;;;;;;4.65;67.65;94556.03;5108545;28;20024;-78
2023/12/13 05:05:18;;;;;;;62.80;36.22;;;;;;;4.67;67.39;94570.00;5110259;27;20031;-80
2023/12/13 05:07:43;;;;;;;56.38;35.33;;;;;;;4.64;67.29;94560.66;5108500;28;20169;-78
2023/12/13 05:10:09;;;;;;;55.88;36.00;;;;;;;4.64;67.38;94540.84;5108681;28;20450;-79
2023/12/13 05:12:34;;;;;;;61.50;36.42;;;;;;;4.58;67.35;94543.25;5109622;28;20093;-79
2023/12/13 05:14:59;;;;;;;53.17;33.55;;;;;;;4.57;67.45;94554.56;5109223;28;20074;-78
2023/12/13 05:17:25;;;;;;;58.10;36.28;;;;;;;4.56;67.54;94572.06;5110272;28;20069;-79
2023/12/13 05:19:50;;;;;;;66.85;39.08;;;;;;;4.49;67.53;94553.88;5108466;28;20480;-79
2023/12/13 05:22:15;;;;;;;60.67;36.22;;;;;;;4.45;67.78;94553.13;5110224;28;20089;-78
2023/12/13 05:24:41;;;;;;;60.65;36.38;;;;;;;4.47;67.55;94551.56;5108243;28;20565;-79
2023/12/13 05:27:06;;;;;;;60.35;36.03;;;;;;;4.43;67.60;94542.66;5108980;28;20035;-79
2023/12/13 05:29:34;;;;;;;56.00;33.38;;;;;;;4.37;67.69;94530.69;5107386;28;20102;-78
2023/12/13 05:31:59;;;;;;;58.22;34.72;;;;;;;4.36;68.03;94536.50;5108079;28;20051;-79
2023/12/13 05:34:25;;;;;;;53.63;33.92;;;;;;;4.37;68.13;94536.13;5109994;28;20051;-77
2023/12/13 05:36:50;;;;;;;49.83;31.27;;;;;;;4.38;68.46;94536.88;5108208;28;20020;-79
2023/12/13 05:39:16;;;;;;;53.85;30.13;;;;;;;4.36;68.65;94540.03;5110072;27;20183;-79
2023/12/13 05:41:41;;;;;;;47.38;29.63;;;;;;;4.38;68.79;94548.53;5107978;28;20572;-79
2023/12/13 05:44:06;;;;;;;45.97;29.95;;;;;;;4.40;68.50;94567.19;5108830;28;20031;-78
2023/12/13 05:46:33;;;;;;;46.20;29.35;;;;;;;4.43;68.45;94559.00;5089620;28;20034;-79
2023/12/13 05:49:02;;;;;;;50.47;30.35;;;;;;;4.48;68.54;94568.66;5109571;28;20031;-78
2023/12/13 05:51:27;;;;;;;41.08;27.10;;;;;;;4.45;68.64;94572.97;5109713;28;20038;-80
2023/12/13 05:53:53;;;;;;;41.83;26.35;;;;;;;4.46;68.93;94560.88;5106819;28;20110;-78
2023/12/13 05:56:18;;;;;;;44.50;26.40;;;;;;;4.42;69.04;94553.97;5108493;28;20370;-79
2023/12/13 05:58:44;;;;;;;38.33;25.50;;;;;;;4.48;69.11;94555.81;5105752;28;20087;-77
2023/12/13 06:01:09;;;;;;;42.45;24.70;;;;;;;4.54;69.05;94537.09;5109634;28;20107;-79
2023/12/13 06:03:35;;;;;;;40.10;24.88;;;;;;;4.63;68.90;94531.13;5107163;27;20051;-79
2023/12/13 06:06:00;;;;;;;37.42;23.67;;;;;;;4.64;68.92;94519.84;5109047;27;20580;-78
2023/12/13 06:08:25;;;;;;;33.83;22.45;;;;;;;4.66;69.03;94530.34;5108260;28;20027;-79
2023/12/13 06:10:51;;;;;;;33.83;23.95;;;;;;;4.66;68.71;94528.38;5108362;28;20016;-78
2023/12/13 06:13:17;;;;;;;38.08;23.63;;;;;;;4.70;69.18;94528.31;5109096;28;20566;-77
2023/12/13 06:15:43;;;;;;;36.65;23.30;;;;;;;4.71;69.12;94544.28;5107277;28;20019;-79
2023/12/13 06:18:09;;;;;;;37.38;24.60;;;;;;;4.74;68.98;94543.44;5107887;28;20072;-79
2023/12/13 06:20:34;;;;;;;41.10;24.55;;;;;;;4.73;69.00;94525.56;5105531;28;20024;-78
2023/12/13 06:23:00;;;;;;;38.75;24.90;;;;;;;4.81;68.91;94509.88;5109291;28;20070;-79
2023/12/13 06:25:25;;;;;;;38.40;24.52;;;;;;;4.86;68.80;94511.38;5105810;28;20036;-77
2023/12/13 06:27:51;;;;;;;39.63;25.02;;;;;;;4.87;68.71;94508.25;5090248;28;20058;-78
2023/12/13 06:30:16;;;;;;;36.53;22.67;;;;;;;4.92;68.71;94504.31;5108599;28;20019;-78
2023/12/13 06:32:41;;;;;;;35.65;23.45;;;;;;;5.03;68.46;94513.09;5107710;28;20481;-78
2023/12/13 06:35:07;;;;;;;38.03;23.77;;;;;;;5.04;68.30;94523.56;5108928;28;20361;-78
2023/12/13 06:37:32;;;;;;;37.30;23.05;;;;;;;5.05;68.40;94522.41;5106609;27;20050;-79
2023/12/13 06:39:58;;;;;;;34.85;24.63;;;;;;;5.13;68.49;94528.53;5108984;28;20052;-78
2023/12/13 06:42:23;;;;;;;39.83;26.02;;;;;;;5.15;68.44;94501.63;5106989;28;20027;-77
2023/12/13 06:44:48;;;;;;;41.97;24.92;;;;;;;5.22;68.04;94500.78;5108700;28;20031;-78
2023/12/13 06:47:14;;;;;;;42.65;26.55;;;;;;;5.22;68.16;94498.03;5089204;28;20444;-78
2023/12/13 06:49:39;;;;;;;45.47;27.33;;;;;;;5.28;68.10;94493.66;5107720;28;20039;-78
2023/12/13 06:52:05;;;;;;;46.88;31.23;;;;;;;5.32;68.11;94484.22;5108488;28;20032;-78
2023/12/13 06:54:30;;;;;;;59.97;38.80;;;;;;;5.36;67.58;94486.91;5106708;28;20102;-77
2023/12/13 06:56:56;;;;;;;75.93;42.08;;;;;;;5.39;67.61;94485.28;5108466;28;20028;-77
2023/12/13 06:59:21;;;;;;;60.08;39.70;;;;;;;5.47;67.08;94489.47;5105154;28;20489;-78
2023/12/13 07:01:47;;;;;;;63.47;40.10;;;;;;;5.52;67.04;94502.63;5108437;28;20032;-78
2023/12/13 07:04:13;;;;;;;68.78;40.30;;;;;;;5.50;67.08;94499.53;5106590;28;20028;-78
2023/12/13 07:06:38;;;;;;;76.95;42.17;;;;;;;5.55;66.90;94505.28;5108236;28;20125;-78
2023/12/13 07:09:04;;;;;;;72.00;43.95;;;;;;;5.58;67.15;94496.28;5106413;28;20031;-79
2023/12/13 07:11:29;;;;;;;73.45;42.15;;;;;;;5.66;66.76;94507.84;5105628;28;20034;-78
2023/12/13 07:13:55;;;;;;;67.47;40.72;;;;;;;5.67;66.85;94495.72;5107930;28;20035;-79
2023/12/13 07:16:20;;;;;;;70.88;41.08;;;;;;;5.73;66.76;94506.94;5106229;28;20405;-79
2023/12/13 07:18:45;;;;;;;61.35;40.80;;;;;;;5.81;66.76;94509.13;5107949;28;20118;-78
2023/12/13 07:21:11;;;;;;;61.05;38.58;;;;;;;5.86;66.70;94491.53;5106100;28;20485;-79
2023/12/13 07:23:36;;;;;;;57.17;36.33;;;;;;;5.96;66.23;94487.84;5108125;28;20015;-79
2023/12/13 07:26:02;;;;;;;64.30;38.70;;;;;;;6.00;66.14;94499.47;5106260;28;20027;-78
2023/12/13 07:28:28;;;;;;;56.97;37.28;;;;;;;6.09;66.17;94494.25;5106040;28;20015;-79
2023/12/13 07:30:55;;;;;;;59.05;36.33;;;;;;;6.16;65.96;94489.84;5106293;28;20343;-79
2023/12/13 07:33:20;;;;;;;55.25;35.28;;;;;;;6.17;65.79;94480.47;5104754;28;20019;-79
2023/12/13 07:35:47;;;;;;;55.00;34.08;;;;;;;6.22;65.69;94493.63;5107619;28;20110;-78
2023/12/13 07:38:14;;;;;;;61.10;35.53;;;;;;;6.33;65.24;94477.81;5104302;28;20024;-78
2023/12/13 07:40:39;;;;;;;60.55;38.70;;;;;;;6.37;65.10;94494.91;5107532;28;20020;-79
2023/12/13 07:43:04;;;;;;;61.80;36.80;;;;;;;6.47;65.25;94493.91;5105895;28;20034;-79
2023/12/13 07:45:30;;;;;;;55.22;36.92;;;;;;;6.58;64.84;94486.25;5107469;28;20543;-78
2023/12/13 07:47:55;;;;;;;53.55;36.92;;;;;;;6.70;64.67;94478.59;5106837;28;20028;-77
2023/12/13 07:50:20;;;;;;;56.08;36.67;;;;;;;6.80;64.58;94483.84;5104971;28;20023;-78
2023/12/13 07:52:46;;;;;;;53.17;36.30;;;;;;;6.90;64.28;94493.03;5107649;28;20422;-78
2023/12/13 07:55:13;;;;;;;52.58;34.58;;;;;;;6.99;63.68;94495.94;5105594;28;20090;-78
2023/12/13 07:57:39;;;;;;;58.60;37.97;;;;;;;7.06;63.51;94493.06;5107643;28;20026;-77
2023/12/13 08:00:05;;;;;;;57.22;37.60;;;;;;;7.23;63.27;94499.31;5105452;28;20023;-80
2023/12/13 08:02:31;;;;;;;58.10;38.78;;;;;;;7.35;62.77;94506.84;5107588;27;20360;-78
2023/12/13 08:04:57;;;;;;;52.63;35.08;;;;;;;7.35;62.74;94506.06;5105694;28;20032;-78
2023/12/13 08:07:22;;;;;;;55.20;34.45;;;;;;;7.38;62.58;94511.44;5104617;28;20028;-77
2023/12/13 08:09:47;;;;;;;52.55;34.53;;;;;;;7.41;62.40;94505.13;5106997;28;20058;-78
2023/12/13 08:12:13;;;;;;;48.45;31.80;;;;;;;7.39;62.32;94496.56;5105017;28;20461;-79
2023/12/13 08:14:39;;;;;;;44.60;29.13;;;;;;;7.47;61.94;94480.00;5105754;28;20118;-77
2023/12/13 08:17:08;;;;;;;41.40;27.17;;;;;;;7.46;61.82;94468.31;5086769;28;20028;-78
2023/12/13 08:19:34;;;;;;;46.83;29.05;;;;;;;7.49;61.63;94461.97;5107156;28;20034;-79
2023/12/13 08:21:59;;;;;;;51.28;30.02;;;;;;;7.55;61.74;94452.06;5105394;28;20024;-80
2023/12/13 08:24:24;;;;;;;41.38;25.63;;;;;;;7.55;61.32;94451.28;5106901;28;20059;-78
2023/12/13 08:26:50;;;;;;;35.83;22.63;;;;;;;7.59;61.48;94471.88;5107104;28;20031;-79
2023/12/13 08:29:15;;;;;;;32.72;22.08;;;;;;;7.60;61.18;94470.69;5106057;28;20549;-78
2023/12/13 08:31:41;;;;;;;36.05;24.08;;;;;;;7.60;61.19;94470.69;5107082;28;20184;-79
2023/12/13 08:34:06;;;;;;;37.17;25.13;;;;;;;7.67;61.14;94470.50;5103764;28;20027;-79
2023/12/13 08:36:32;;;;;;;36.85;26.15;;;;;;;7.63;61.34;94482.75;5107240;28;20424;-80
2023/12/13 08:38:57;;;;;;;38.05;24.77;;;;;;;7.63;61.15;94486.25;5104116;28;20030;-79
2023/12/13 08:41:23;;;;;;;33.10;24.60;;;;;;;7.61;61.18;94502.31;5107548;28;20370;-78
2023/12/13 08:43:48;;;;;;;42.75;27.55;;;;;;;7.61;61.16;94496.06;5105820;28;20024;-79
2023/12/13 08:46:14;;;;;;;43.63;27.98;;;;;;;7.61;61.29;94480.41;5105242;28;20140;-80
2023/12/13 08:48:39;;;;;;;40.40;28.48;;;;;;;7.68;61.14;94476.72;5106916;28;20087;-79
2023/12/13 08:51:04;;;;;;;46.88;29.65;;;;;;;7.66;60.92;94484.63;5105507;28;20032;-78
2023/12/13 08:53:30;;;;;;;49.97;30.13;;;;;;;7.81;60.49;94496.00;5106178;28;20115;-78
2023/12/13 08:55:55;;;;;;;47.47;27.73;;;;;;;7.80;60.43;94488.94;5105040;28;20442;-79
2023/12/13 08:58:21;;;;;;;45.33;25.42;;;;;;;7.82;60.29;94478.38;5088919;28;20020;-79
2023/12/13 09:00:46;;;;;;;42.95;26.85;;;;;;;7.79;60.16;94495.63;5103460;28;20467;-79
2023/12/13 09:03:12;;;;;;;50.80;28.98;;;;;;;7.78;60.30;94494.88;5105183;28;20015;-78
2023/12/13 09:05:37;;;;;;;49.13;28.55;;;;;;;7.83;60.16;94479.91;5105741;28;20027;-79
2023/12/13 09:08:05;;;;;;;42.15;29.20;;;;;;;7.87;59.90;94470.41;5105369;28;20032;-79
2023/12/13 09:10:34;;;;;;;43.00;28.88;;;;;;;7.88;59.89;94471.94;5106918;28;20103;-80
2023/12/13 09:13:03;;;;;;;38.17;27.20;;;;;;;7.93;59.82;94460.47;5104090;28;20079;-79
2023/12/13 09:15:29;;;;;;;38.05;27.42;;;;;;;8.01;59.46;94458.31;5105484;28;20019;-79
2023/12/13 09:17:54;;;;;;;40.95;25.95;;;;;;;8.11;59.27;94440.81;5086562;28;20030;-79
2023/12/13 09:20:20;;;;;;;38.67;24.65;;;;;;;8.17;59.05;94436.34;5110582;28;20020;-79
2023/12/13 09:22:45;;;;;;;33.42;22.77;;;;;;;8.50;58.17;94439.00;5109405;28;20501;-79
2023/12/13 09:25:16;;;;;;;32.28;21.73;;;;;;;8.81;57.19;94424.78;5109509;28;20078;-78
2023/12/13 09:27:43;;;;;;;32.13;21.48;;;;;;;8.98;56.53;94426.97;5108902;28;20023;-79
2023/12/13 09:30:09;;;;;;;38.92;23.83;;;;;;;9.40;55.77;94435.06;5108212;28;20442;-78
2023/12/13 09:32:35;;;;;;;40.15;26.02;;;;;;;9.65;55.33;94428.03;5110322;28;20080;-79
2023/12/13 09:35:00;;;;;;;46.55;27.23;;;;;;;9.64;55.15;94434.72;5107842;28;20028;-80
2023/12/13 09:37:26;;;;;;;41.53;27.30;;;;;;;9.61;55.28;94428.13;5110646;28;20111;-79
2023/12/13 09:39:52;;;;;;;39.40;27.05;;;;;;;9.63;54.85;94455.88;5108481;28;20020;-80
2023/12/13 09:42:17;;;;;;;39.88;25.60;;;;;;;9.68;54.87;94430.63;5109675;28;20112;-80
2023/12/13 09:44:44;;;;;;;37.78;25.40;;;;;;;9.78;54.59;94423.25;5091044;28;20019;-79
2023/12/13 09:47:10;;;;;;;39.97;26.63;;;;;;;10.09;54.02;94412.38;5106798;28;20024;-79
2023/12/13 09:49:36;;;;;;;41.88;27.98;;;;;;;10.37;53.19;94416.09;5108756;28;20110;-80
2023/12/13 09:52:03;;;;;;;41.78;28.17;;;;;;;10.84;52.33;94412.44;5106239;28;20019;-79
2023/12/13 09:54:30;;;;;;;38.88;27.70;;;;;;;11.09;51.34;94403.22;5108845;28;20024;-79
2023/12/13 09:56:56;;;;;;;37.55;25.35;;;;;;;11.34;50.53;94407.72;5106141;28;20443;-79
2023/12/13 09:59:21;;;;;;;34.28;22.05;;;;;;;11.57;50.09;94403.63;5108669;28;20030;-79
2023/12/13 10:01:47;;;;;;;25.05;18.10;;;;;;;11.65;49.15;94380.13;5109031;28;20460;-80
2023/12/13 10:04:14;;;;;;;26.75;18.25;;;;;;;11.63;48.11;94380.56;5108321;28;20016;-80
2023/12/13 10:06:39;;;;;;;23.98;16.73;;;;;;;11.59;48.06;94371.69;5108722;28;20526;-79
2023/12/13 10:09:06;;;;;;;25.60;17.60;;;;;;;11.48;48.31;94370.59;5106219;28;20114;-79
2023/12/13 10:11:32;;;;;;;24.45;17.60;;;;;;;11.40;48.81;94359.88;5091698;28;20054;-79
2023/12/13 10:13:57;;;;;;;29.38;19.20;;;;;;;11.31;49.11;94364.59;5105850;28;20071;-78
2023/12/13 10:16:23;;;;;;;24.52;17.58;;;;;;;11.34;50.61;94336.16;5109888;28;20055;-77
2023/12/13 10:18:48;;;;;;;21.70;15.23;;;;;;;11.29;52.41;94331.25;5107993;28;20063;-77
2023/12/13 10:21:14;;;;;;;25.17;16.70;;;;;;;11.20;49.86;94339.50;5108676;28;20106;-78
2023/12/13 10:23:41;;;;;;;27.70;16.77;;;;;;;11.02;49.89;94337.47;5090818;28;20024;-79
2023/12/13 10:26:07;;;;;;;25.13;16.30;;;;;;;10.94;50.53;94323.22;5105818;28;20026;-78
2023/12/13 10:28:35;;;;;;;27.67;17.92;;;;;;;10.93;52.90;94309.94;5108184;28;20027;-77
2023/12/13 10:31:00;;;;;;;21.85;13.88;;;;;;;10.83;50.13;94292.66;5105375;28;20100;-77
2023/12/13 10:33:26;;;;;;;20.20;12.98;;;;;;;10.79;52.25;94314.81;5109784;28;20027;-79
2023/12/13 10:35:53;;;;;;;19.98;13.48;;;;;;;10.75;51.65;94313.41;5105983;28;20469;-77
2023/12/13 10:38:21;;;;;;;22.40;14.52;;;;;;;10.72;51.92;94322.53;5107653;28;20024;-78
2023/12/13 10:40:46;;;;;;;20.27;13.48;;;;;;;10.70;51.77;94319.50;5108638;28;20020;-77
2023/12/13 10:43:13;;;;;;;19.40;13.13;;;;;;;10.67;51.76;94303.88;5089181;28;20016;-79
2023/12/13 10:45:40;;;;;;;19.63;13.10;;;;;;;10.69;51.77;94313.22;5107721;28;20023;-77
2023/12/13 10:48:08;;;;;;;20.73;13.27;;;;;;;10.70;51.86;94314.00;5105122;28;20073;-78
2023/12/13 10:50:34;;;;;;;22.75;15.05;;;;;;;10.69;52.17;94304.97;5107906;28;20425;-79
2023/12/13 10:53:02;;;;;;;22.92;13.02;;;;;;;10.66;51.42;94307.84;5106518;28;20035;-77
2023/12/13 10:55:28;;;;;;;24.45;13.13;;;;;;;10.70;52.47;94303.00;5108927;28;20031;-77
2023/12/13 10:57:54;;;;;;;18.95;13.45;;;;;;;10.73;53.10;94305.63;5106526;28;20024;-78
2023/12/13 11:00:20;;;;;;;18.70;13.07;;;;;;;10.80;52.19;94302.56;5108437;28;20481;-78
2023/12/13 11:02:52;;;;;;;20.95;14.07;;;;;;;10.82;51.65;94296.63;5090206;28;20027;-79
2023/12/13 11:05:18;;;;;;;27.35;16.73;;;;;;;10.80;51.64;94283.34;5104952;28;20019;-80
2023/12/13 11:07:45;;;;;;;29.40;15.77;;;;;;;10.81;51.56;94278.59;5108330;28;20023;-79
2023/12/13 11:10:11;;;;;;;24.90;15.90;;;;;;;10.87;51.94;94285.03;5106327;27;20040;-80
2023/12/13 11:12:50;;;;;;;26.65;17.33;;;;;;;10.83;51.79;94284.41;5090163;28;20055;-81
2023/12/13 11:15:17;;;;;;;26.08;16.52;;;;;;;10.77;51.69;94251.25;5106752;28;20162;-80
2023/12/13 11:17:49;;;;;;;26.85;18.25;;;;;;;10.86;51.66;94253.25;5105498;28;20055;-80